createdAt,value
2022-12-14T00:01:16.354Z,0.20
2022-12-14T00:03:43.362Z,0.20
2022-12-14T00:06:14.231Z,0.20
2022-12-14T00:08:42.036Z,0.20
2022-12-14T00:11:09.343Z,0.30
2022-12-14T00:13:36.992Z,0.30
2022-12-14T00:16:08.311Z,0.30
2022-12-14T00:18:35.240Z,0.30
2022-12-14T00:21:09.637Z,0.30
2022-12-14T00:23:39.305Z,0.30
2022-12-14T00:26:09.464Z,0.30
2022-12-14T00:28:37.147Z,0.20
2022-12-14T00:31:04.245Z,0.20
2022-12-14T00:33:31.170Z,0.20
2022-12-14T00:35:58.145Z,0.20
2022-12-14T00:38:25.465Z,0.20
2022-12-14T00:40:52.470Z,0.20
2022-12-14T00:43:19.291Z,0.20
2022-12-14T00:45:46.255Z,0.10
2022-12-14T00:48:13.663Z,0.10
2022-12-14T00:50:40.633Z,0.10
2022-12-14T00:53:07.729Z,0.10
2022-12-14T00:55:41.636Z,0.10
2022-12-14T00:58:09.236Z,0.20
2022-12-14T01:00:36.106Z,0.20
2022-12-14T01:03:02.947Z,0.10
2022-12-14T01:05:29.792Z,0.20
2022-12-14T01:07:56.770Z,0.20
2022-12-14T01:10:23.608Z,0.20
2022-12-14T01:12:50.494Z,0.20
2022-12-14T01:15:17.482Z,0.20
2022-12-14T01:17:44.387Z,0.20
2022-12-14T01:20:11.408Z,0.20
2022-12-14T01:22:38.579Z,0.10
2022-12-14T01:25:05.789Z,0.10
2022-12-14T01:27:32.713Z,0.10
2022-12-14T01:29:59.616Z,0.10
2022-12-14T01:32:26.493Z,0.10
2022-12-14T01:34:53.297Z,0.10
2022-12-14T01:37:20.090Z,0.10
2022-12-14T01:39:46.956Z,0.10
2022-12-14T01:42:15.076Z,0.10
2022-12-14T01:44:44.710Z,0.10
2022-12-14T01:47:29.233Z,0.10
2022-12-14T01:50:02.357Z,0.10
2022-12-14T01:52:29.202Z,0.10
2022-12-14T01:55:01.024Z,0.00
2022-12-14T01:57:30.736Z,0.00
2022-12-14T02:00:02.242Z,0.00
2022-12-14T02:02:32.689Z,-0.10
2022-12-14T02:05:01.126Z,-0.20
2022-12-14T02:07:28.860Z,-0.20
2022-12-14T02:09:57.336Z,-0.20
2022-12-14T02:12:50.150Z,-0.20
2022-12-14T02:15:17.192Z,-0.10
2022-12-14T02:17:45.125Z,-0.10
2022-12-14T02:20:13.604Z,-0.10
2022-12-14T02:23:00.697Z,-0.10
2022-12-14T02:25:49.498Z,-0.10
2022-12-14T02:28:32.062Z,-0.10
2022-12-14T02:31:06.084Z,-0.20
2022-12-14T02:33:50.811Z,-0.10
2022-12-14T02:36:32.991Z,-0.20
2022-12-14T02:39:12.173Z,-0.30
2022-12-14T02:41:45.356Z,-0.40
2022-12-14T02:44:30.636Z,-0.60
2022-12-14T02:46:59.798Z,-0.60
2022-12-14T02:49:49.170Z,-0.70
2022-12-14T02:52:19.012Z,-0.80
2022-12-14T02:54:58.262Z,-0.80
2022-12-14T02:57:29.731Z,-0.80
2022-12-14T02:59:58.229Z,-0.70
2022-12-14T03:02:25.420Z,-0.70
2022-12-14T03:04:52.535Z,-0.70
2022-12-14T03:07:36.632Z,-0.70
2022-12-14T03:10:09.417Z,-0.80
2022-12-14T03:12:37.700Z,-0.70
2022-12-14T03:15:05.534Z,-0.70
2022-12-14T03:17:33.180Z,-0.60
2022-12-14T03:20:05.388Z,-0.80
2022-12-14T03:22:36.322Z,-0.80
2022-12-14T03:25:08.844Z,-0.80
2022-12-14T03:27:38.656Z,-0.70
2022-12-14T03:30:51.254Z,-0.70
2022-12-14T03:33:13.633Z,-0.80
2022-12-14T03:35:46.826Z,-0.80
2022-12-14T03:38:18.175Z,-0.80
2022-12-14T03:40:50.883Z,-0.80
2022-12-14T03:43:24.584Z,-0.80
2022-12-14T03:45:57.644Z,-0.80
2022-12-14T03:48:43.143Z,-0.80
2022-12-14T03:51:13.068Z,-0.80
2022-12-14T03:53:39.905Z,-0.90
2022-12-14T03:56:12.454Z,-1.00
2022-12-14T03:58:39.355Z,-0.90
2022-12-14T04:01:25.094Z,-0.90
2022-12-14T04:03:59.500Z,-0.90
2022-12-14T04:06:41.545Z,-0.80
2022-12-14T04:09:27.353Z,-0.70
2022-12-14T04:12:20.508Z,-0.70
2022-12-14T04:15:26.604Z,-0.60
2022-12-14T04:18:14.170Z,-0.50
2022-12-14T04:20:48.375Z,-0.40
2022-12-14T04:23:39.302Z,-0.40
2022-12-14T04:26:08.750Z,-0.30
2022-12-14T04:28:58.954Z,-0.30
2022-12-14T04:31:28.433Z,-0.40
2022-12-14T04:33:57.148Z,-0.50
2022-12-14T04:36:32.958Z,-0.60
2022-12-14T04:39:11.928Z,-0.60
2022-12-14T04:41:41.450Z,-0.60
2022-12-14T04:44:14.615Z,-0.70
2022-12-14T04:46:42.123Z,-0.70
2022-12-14T04:49:29.238Z,-0.70
2022-12-14T04:52:01.983Z,-0.70
2022-12-14T04:55:00.989Z,-0.70
2022-12-14T04:57:46.514Z,-0.70
2022-12-14T05:00:13.598Z,-0.70
2022-12-14T05:02:40.603Z,-0.60
2022-12-14T05:05:10.350Z,-0.60
2022-12-14T05:07:59.928Z,-0.60
2022-12-14T05:10:48.062Z,-0.60
2022-12-14T05:13:18.842Z,-0.60
2022-12-14T05:15:48.404Z,-0.60
2022-12-14T05:18:15.450Z,-0.60
2022-12-14T05:20:42.339Z,-0.60
2022-12-14T05:23:09.257Z,-0.60
2022-12-14T05:25:36.176Z,-0.60
2022-12-14T05:28:03.220Z,-0.60
2022-12-14T05:30:30.208Z,-0.60
2022-12-14T05:32:57.589Z,-0.50
2022-12-14T05:35:24.627Z,-0.50
2022-12-14T05:37:51.437Z,-0.40
2022-12-14T05:40:18.350Z,-0.40
2022-12-14T05:42:47.681Z,-0.30
2022-12-14T05:45:17.966Z,-0.30
2022-12-14T05:47:45.364Z,-0.40
2022-12-14T05:50:12.372Z,-0.30
2022-12-14T05:52:39.226Z,-0.40
2022-12-14T05:55:06.856Z,-0.30
2022-12-14T05:57:33.719Z,-0.30
2022-12-14T06:00:00.587Z,-0.30
2022-12-14T06:02:27.602Z,-0.30
2022-12-14T06:04:54.674Z,-0.40
2022-12-14T06:07:26.090Z,-0.40
2022-12-14T06:09:54.583Z,-0.40
2022-12-14T06:12:21.516Z,-0.40
2022-12-14T06:14:48.367Z,-0.40
2022-12-14T06:17:15.206Z,-0.40
2022-12-14T06:19:43.390Z,-0.40
2022-12-14T06:22:17.009Z,-0.40
2022-12-14T06:24:43.848Z,-0.40
2022-12-14T06:27:10.708Z,-0.40
2022-12-14T06:29:37.606Z,-0.40
2022-12-14T06:32:04.586Z,-0.40
2022-12-14T06:34:35.390Z,-0.40
2022-12-14T06:37:06.461Z,-0.50
2022-12-14T06:39:33.293Z,-0.50
2022-12-14T06:42:00.143Z,-0.50
2022-12-14T06:44:27.051Z,-0.50
2022-12-14T06:46:54.201Z,-0.50
2022-12-14T06:49:21.253Z,-0.50
2022-12-14T06:51:48.333Z,-0.50
2022-12-14T06:54:15.886Z,-0.50
2022-12-14T06:56:43.753Z,-0.50
2022-12-14T06:59:11.070Z,-0.50
2022-12-14T07:01:38.546Z,-0.50
2022-12-14T07:04:05.883Z,-0.50
2022-12-14T07:06:35.554Z,-0.50
2022-12-14T07:09:03.050Z,-0.50
2022-12-14T07:11:30.807Z,-0.50
2022-12-14T07:14:00.835Z,-0.50
2022-12-14T07:16:29.314Z,-0.60
2022-12-14T07:18:56.178Z,-0.60
2022-12-14T07:21:23.529Z,-0.60
2022-12-14T07:23:52.556Z,-0.70
2022-12-14T07:26:23.679Z,-0.70
2022-12-14T07:28:50.686Z,-0.70
2022-12-14T07:31:18.934Z,-0.70
2022-12-14T07:33:45.917Z,-0.70
2022-12-14T07:36:17.178Z,-0.70
2022-12-14T07:38:45.054Z,-0.80
2022-12-14T07:41:21.814Z,-0.80
2022-12-14T07:43:49.814Z,-0.80
2022-12-14T07:46:22.151Z,-0.80
2022-12-14T07:48:50.288Z,-0.80
2022-12-14T07:51:18.275Z,-0.70
2022-12-14T07:53:45.129Z,-0.70
2022-12-14T07:56:13.272Z,-0.70
2022-12-14T07:58:40.133Z,-0.70
2022-12-14T08:01:10.910Z,-0.70
2022-12-14T08:03:37.814Z,-0.70
2022-12-14T08:06:05.560Z,-0.60
2022-12-14T08:08:33.143Z,-0.60
2022-12-14T08:11:00.417Z,-0.60
2022-12-14T08:13:27.709Z,-0.70
2022-12-14T08:15:55.060Z,-0.70
2022-12-14T08:18:22.055Z,-0.70
2022-12-14T08:20:53.072Z,-0.70
2022-12-14T08:23:20.412Z,-0.60
2022-12-14T08:25:53.304Z,-0.60
2022-12-14T08:28:20.175Z,-0.70
2022-12-14T08:30:47.101Z,-0.70
2022-12-14T08:33:14.042Z,-0.70
2022-12-14T08:35:41.043Z,-0.70
2022-12-14T08:38:08.555Z,-0.70
2022-12-14T08:40:35.979Z,-0.70
2022-12-14T08:43:02.831Z,-0.70
2022-12-14T08:45:29.872Z,-0.70
2022-12-14T08:47:57.155Z,-0.80
2022-12-14T08:50:24.284Z,-0.80
2022-12-14T08:52:51.220Z,-0.70
2022-12-14T08:55:21.093Z,-0.60
2022-12-14T08:57:51.263Z,-0.60
2022-12-14T09:00:18.398Z,-0.60
2022-12-14T09:02:49.067Z,-0.60
2022-12-14T09:05:17.211Z,-0.60
2022-12-14T09:07:44.060Z,-0.60
2022-12-14T09:10:11.290Z,-0.70
2022-12-14T09:12:38.265Z,-0.60
2022-12-14T09:15:05.383Z,-0.60
2022-12-14T09:17:32.898Z,-0.70
2022-12-14T09:19:59.720Z,-0.60
2022-12-14T09:22:26.841Z,-0.60
2022-12-14T09:24:53.800Z,-0.60
2022-12-14T09:27:22.570Z,-0.60
2022-12-14T09:29:49.736Z,-0.70
2022-12-14T09:32:16.967Z,-0.70
2022-12-14T09:34:43.809Z,-0.70
2022-12-14T09:37:10.692Z,-0.70
2022-12-14T09:39:37.512Z,-0.70
2022-12-14T09:42:07.406Z,-0.80
2022-12-14T09:44:43.755Z,-0.80
2022-12-14T09:47:29.344Z,-0.80
2022-12-14T09:49:56.155Z,-0.80
2022-12-14T09:52:43.242Z,-0.70
2022-12-14T09:55:17.473Z,-0.70
2022-12-14T09:57:45.445Z,-0.70
2022-12-14T10:00:19.084Z,-0.70
2022-12-14T10:03:06.967Z,-0.60
2022-12-14T10:05:34.283Z,-0.60
2022-12-14T10:08:01.617Z,-0.60
2022-12-14T10:10:48.470Z,-0.60
2022-12-14T10:13:15.355Z,-0.60
2022-12-14T10:16:05.045Z,-0.50
2022-12-14T10:18:58.193Z,-0.50
2022-12-14T10:21:20.244Z,-0.40
2022-12-14T10:23:52.011Z,-0.40
2022-12-14T10:26:20.226Z,-0.40
2022-12-14T10:28:52.213Z,-0.40
2022-12-14T10:31:44.937Z,-0.30
2022-12-14T10:34:22.933Z,-0.30
2022-12-14T10:37:04.468Z,-0.20
2022-12-14T10:39:51.519Z,-0.20
2022-12-14T10:42:27.767Z,0.00
2022-12-14T10:47:50.195Z,0.30
2022-12-14T10:50:25.653Z,0.50
2022-12-14T10:52:53.954Z,0.70
2022-12-14T10:55:28.349Z,0.80
2022-12-14T10:57:55.896Z,0.90
2022-12-14T11:00:23.661Z,1.00
2022-12-14T11:02:54.776Z,1.10
2022-12-14T11:05:36.675Z,1.10
2022-12-14T11:08:08.317Z,1.20
2022-12-14T11:10:42.167Z,1.20
2022-12-14T11:13:17.703Z,1.20
2022-12-14T11:15:45.602Z,1.30
2022-12-14T11:18:12.531Z,1.40
2022-12-14T11:20:53.477Z,1.50
2022-12-14T11:23:28.108Z,1.50
2022-12-14T11:25:57.098Z,1.70
2022-12-14T11:28:43.296Z,1.70
2022-12-14T11:31:23.217Z,1.80
2022-12-14T11:33:54.561Z,1.90
2022-12-14T11:36:29.577Z,1.80
2022-12-14T11:39:19.825Z,1.70
2022-12-14T11:41:47.984Z,1.70
2022-12-14T11:44:44.329Z,1.70
2022-12-14T11:47:15.937Z,1.80
2022-12-14T11:49:44.669Z,1.90
2022-12-14T11:52:18.410Z,2.10
2022-12-14T11:55:07.008Z,2.30
2022-12-14T11:57:51.877Z,2.40
2022-12-14T12:00:18.714Z,2.50
2022-12-14T12:02:54.928Z,2.60
2022-12-14T12:05:23.187Z,2.60
2022-12-14T12:07:50.123Z,2.70
2022-12-14T12:10:22.608Z,2.80
2022-12-14T12:12:54.639Z,2.70
2022-12-14T12:15:23.997Z,2.70
2022-12-14T12:17:54.129Z,2.80
2022-12-14T12:20:23.966Z,2.90
2022-12-14T12:22:53.573Z,3.00
2022-12-14T12:25:27.593Z,2.80
2022-12-14T12:28:01.124Z,2.70
2022-12-14T12:30:29.894Z,2.70
2022-12-14T12:32:59.782Z,2.80
2022-12-14T12:35:29.961Z,2.90
2022-12-14T12:37:58.900Z,3.10
2022-12-14T12:40:29.204Z,3.30
2022-12-14T12:42:58.948Z,3.40
2022-12-14T12:45:31.906Z,3.30
2022-12-14T12:48:12.719Z,3.40
2022-12-14T12:50:42.630Z,3.50
2022-12-14T12:53:14.761Z,3.40
2022-12-14T12:55:47.714Z,3.50
2022-12-14T12:58:40.826Z,3.70
2022-12-14T13:01:16.374Z,3.80
2022-12-14T13:03:45.946Z,3.90
2022-12-14T13:06:15.974Z,3.90
2022-12-14T13:08:43.786Z,3.90
2022-12-14T13:11:26.153Z,3.90
2022-12-14T13:13:55.950Z,4.10
2022-12-14T13:16:27.769Z,4.30
2022-12-14T13:19:08.978Z,4.30
2022-12-14T13:21:50.323Z,4.30
2022-12-14T13:24:18.806Z,4.20
2022-12-14T13:27:03.189Z,4.20
2022-12-14T13:29:49.259Z,4.30
2022-12-14T13:32:37.366Z,4.40
2022-12-14T13:35:23.320Z,4.60
2022-12-14T13:37:52.980Z,4.60
2022-12-14T13:40:28.984Z,4.60
2022-12-14T13:43:05.811Z,4.70
2022-12-14T13:45:38.038Z,4.70
2022-12-14T13:48:07.992Z,4.70
2022-12-14T13:50:54.211Z,4.80
2022-12-14T13:53:29.361Z,4.80
2022-12-14T13:56:00.112Z,4.90
2022-12-14T13:58:37.496Z,5.10
2022-12-14T14:01:04.366Z,5.40
2022-12-14T14:03:34.519Z,5.60
2022-12-14T14:06:20.279Z,5.60
2022-12-14T14:08:49.757Z,5.70
2022-12-14T14:11:39.180Z,5.80
2022-12-14T14:14:20.614Z,5.90
2022-12-14T14:16:50.211Z,5.90
2022-12-14T14:19:27.265Z,5.70
2022-12-14T14:22:24.583Z,5.50
2022-12-14T14:24:58.081Z,5.30
2022-12-14T14:27:30.198Z,5.10
2022-12-14T14:29:58.259Z,5.00
2022-12-14T14:32:30.566Z,4.80
2022-12-14T14:34:57.484Z,4.70
2022-12-14T14:37:26.363Z,4.60
2022-12-14T14:40:10.217Z,4.50
2022-12-14T14:43:00.321Z,4.40
2022-12-14T14:45:27.380Z,4.30
2022-12-14T14:47:58.308Z,4.20
2022-12-14T14:50:38.341Z,4.10
2022-12-14T14:53:23.819Z,3.90
2022-12-14T14:56:01.281Z,3.80
2022-12-14T14:58:33.467Z,3.70
2022-12-14T15:01:00.930Z,3.60
2022-12-14T15:03:51.107Z,3.50
2022-12-14T15:06:21.522Z,3.40
2022-12-14T15:08:50.396Z,3.30
2022-12-14T15:11:21.648Z,3.20
2022-12-14T15:14:14.547Z,3.20
2022-12-14T15:16:42.484Z,3.20
2022-12-14T15:19:36.988Z,3.30
2022-12-14T15:22:05.574Z,3.40
2022-12-14T15:24:43.216Z,3.50
2022-12-14T15:27:10.022Z,3.50
2022-12-14T15:29:36.955Z,3.60
2022-12-14T15:32:05.136Z,3.60
2022-12-14T15:34:32.087Z,3.60
2022-12-14T15:36:58.952Z,3.60
2022-12-14T15:39:30.211Z,3.50
2022-12-14T15:42:10.432Z,3.50
2022-12-14T15:44:37.607Z,3.40
2022-12-14T15:47:04.652Z,3.40
2022-12-14T15:49:31.713Z,3.30
2022-12-14T15:51:59.208Z,3.30
2022-12-14T15:54:26.484Z,3.20
2022-12-14T15:56:55.586Z,3.10
2022-12-14T15:59:31.158Z,3.10
2022-12-14T16:02:16.667Z,3.00
2022-12-14T16:04:44.158Z,3.00
2022-12-14T16:07:18.184Z,2.90
2022-12-14T16:09:49.940Z,2.80
2022-12-14T16:12:20.137Z,2.70
2022-12-14T16:14:54.495Z,2.70
2022-12-14T16:17:32.378Z,2.60
2022-12-14T16:20:10.233Z,2.60
2022-12-14T16:22:40.206Z,2.50
2022-12-14T16:25:09.876Z,2.40
2022-12-14T16:27:41.121Z,2.40
2022-12-14T16:30:19.747Z,2.30
2022-12-14T16:32:49.925Z,2.20
2022-12-14T16:35:22.340Z,2.10
2022-12-14T16:37:51.369Z,2.00
2022-12-14T16:40:23.617Z,1.90
2022-12-14T16:42:50.461Z,1.80
2022-12-14T16:45:35.734Z,1.70
2022-12-14T16:48:06.772Z,1.60
2022-12-14T16:50:55.370Z,1.60
2022-12-14T16:53:25.316Z,1.50
2022-12-14T16:56:04.243Z,1.40
2022-12-14T16:58:31.390Z,1.30
2022-12-14T17:01:02.861Z,1.30
2022-12-14T17:03:30.965Z,1.20
2022-12-14T17:06:02.650Z,1.10
2022-12-14T17:08:29.821Z,1.10
2022-12-14T17:10:56.908Z,1.00
2022-12-14T17:13:23.730Z,0.90
2022-12-14T17:15:56.432Z,0.80
2022-12-14T17:18:25.791Z,0.80
2022-12-14T17:20:52.658Z,0.80
2022-12-14T17:23:19.778Z,0.70
2022-12-14T17:25:48.096Z,0.70
2022-12-14T17:28:26.176Z,0.60
2022-12-14T17:30:56.397Z,0.50
2022-12-14T17:33:24.666Z,0.50
2022-12-14T17:35:51.748Z,0.40
2022-12-14T17:38:19.361Z,0.40
2022-12-14T17:40:47.658Z,0.30
2022-12-14T17:43:15.515Z,0.20
2022-12-14T17:45:42.499Z,0.20
2022-12-14T17:48:16.523Z,0.10
2022-12-14T17:50:45.156Z,0.00
2022-12-14T17:53:16.093Z,0.00
2022-12-14T17:55:43.115Z,-0.10
2022-12-14T17:58:10.704Z,-0.20
2022-12-14T18:00:56.274Z,-0.20
2022-12-14T18:03:23.409Z,-0.20
2022-12-14T18:05:50.672Z,-0.30
2022-12-14T18:08:18.177Z,-0.30
2022-12-14T18:10:45.277Z,-0.40
2022-12-14T18:13:13.152Z,-0.40
2022-12-14T18:15:44.387Z,-0.40
2022-12-14T18:18:17.482Z,-0.50
2022-12-14T18:20:45.222Z,-0.60
2022-12-14T18:23:16.902Z,-0.70
2022-12-14T18:25:45.258Z,-0.80
2022-12-14T18:28:15.660Z,-0.80
2022-12-14T18:30:49.266Z,-0.80
2022-12-14T18:33:20.835Z,-0.90
2022-12-14T18:35:48.420Z,-0.90
2022-12-14T18:38:15.297Z,-0.90
2022-12-14T18:40:43.500Z,-1.00
2022-12-14T18:43:26.140Z,-1.00
2022-12-14T18:45:53.793Z,-1.00
2022-12-14T18:48:21.070Z,-1.10
2022-12-14T18:50:49.494Z,-1.20
2022-12-14T18:53:20.646Z,-1.10
2022-12-14T18:55:48.047Z,-1.20
2022-12-14T18:58:16.894Z,-1.20
2022-12-14T19:00:44.161Z,-1.20
2022-12-14T19:03:11.180Z,-1.30
2022-12-14T19:05:38.418Z,-1.30
2022-12-14T19:08:05.313Z,-1.40
2022-12-14T19:10:32.939Z,-1.40
2022-12-14T19:12:59.829Z,-1.40
2022-12-14T19:15:28.566Z,-1.50
2022-12-14T19:17:56.091Z,-1.50
2022-12-14T19:20:23.719Z,-1.50
2022-12-14T19:22:51.183Z,-1.60
2022-12-14T19:25:18.703Z,-1.70
2022-12-14T19:28:30.343Z,-1.70
2022-12-14T19:30:34.816Z,-1.70
2022-12-14T19:33:01.704Z,-1.70
2022-12-14T19:35:28.649Z,-1.80
2022-12-14T19:37:55.969Z,-1.80
2022-12-14T19:40:22.901Z,-1.80
2022-12-14T19:42:50.594Z,-1.90
2022-12-14T19:45:17.702Z,-1.90
2022-12-14T19:50:34.404Z,-2.00
2022-12-14T19:53:01.218Z,-2.10
2022-12-14T19:55:28.240Z,-2.10
2022-12-14T19:57:55.473Z,-2.10
2022-12-14T20:00:22.308Z,-2.20
2022-12-14T20:02:49.205Z,-2.20
2022-12-14T20:05:17.177Z,-2.20
2022-12-14T20:07:44.233Z,-2.20
2022-12-14T20:10:11.077Z,-2.20
2022-12-14T20:12:37.900Z,-2.20
2022-12-14T20:15:04.999Z,-2.30
2022-12-14T20:17:32.083Z,-2.30
2022-12-14T20:20:02.191Z,-2.30
2022-12-14T20:22:32.194Z,-2.30
2022-12-14T20:24:59.026Z,-2.30
2022-12-14T20:27:26.001Z,-2.30
2022-12-14T20:29:53.006Z,-2.40
2022-12-14T20:32:19.967Z,-2.40
2022-12-14T20:34:47.469Z,-2.40
2022-12-14T20:37:14.289Z,-2.40
2022-12-14T20:39:41.125Z,-2.40
2022-12-14T20:42:08.042Z,-2.40
2022-12-14T20:44:34.984Z,-2.50
2022-12-14T20:47:01.869Z,-2.50
2022-12-14T20:49:32.779Z,-2.50
2022-12-14T20:51:59.710Z,-2.50
2022-12-14T20:54:28.027Z,-2.50
2022-12-14T20:56:54.833Z,-2.60
2022-12-14T20:59:21.719Z,-2.60
2022-12-14T21:01:55.035Z,-2.70
2022-12-14T21:04:23.130Z,-2.70
2022-12-14T21:06:50.018Z,-2.80
2022-12-14T21:09:16.929Z,-2.90
2022-12-14T21:12:03.465Z,-2.90
2022-12-14T21:14:32.499Z,-2.90
2022-12-14T21:16:59.651Z,-2.90
2022-12-14T21:19:26.929Z,-2.90
2022-12-14T21:21:54.397Z,-2.90
2022-12-14T21:24:44.710Z,-2.90
2022-12-14T21:27:09.652Z,-2.90
2022-12-14T21:29:36.489Z,-2.80
2022-12-14T21:32:04.441Z,-2.90
2022-12-14T21:34:32.087Z,-2.90
2022-12-14T21:36:59.227Z,-2.90
2022-12-14T21:39:26.109Z,-2.90
2022-12-14T21:42:13.183Z,-2.90
2022-12-14T21:44:41.603Z,-2.90
2022-12-14T21:47:09.922Z,-3.00
2022-12-14T21:49:37.675Z,-3.00
2022-12-14T21:52:07.480Z,-3.00
2022-12-14T21:54:36.097Z,-3.00
2022-12-14T21:57:21.462Z,-3.00
2022-12-14T21:59:48.315Z,-3.10
2022-12-14T22:02:19.479Z,-3.10
2022-12-14T22:04:47.101Z,-3.10
2022-12-14T22:07:15.261Z,-3.00
2022-12-14T22:09:42.506Z,-3.10
2022-12-14T22:12:09.824Z,-3.10
2022-12-14T22:14:36.986Z,-3.10
2022-12-14T22:17:04.699Z,-3.10
2022-12-14T22:19:31.590Z,-3.20
2022-12-14T22:21:58.438Z,-3.10
2022-12-14T22:24:25.611Z,-3.10
2022-12-14T22:26:52.540Z,-3.10
2022-12-14T22:29:20.033Z,-3.10
2022-12-14T22:31:47.030Z,-3.10
2022-12-14T22:34:19.256Z,-3.10
2022-12-14T22:36:46.526Z,-3.10
2022-12-14T22:39:13.612Z,-3.10
2022-12-14T22:41:40.537Z,-3.10
2022-12-14T22:44:07.794Z,-3.20
2022-12-14T22:46:34.753Z,-3.20
2022-12-14T22:49:01.645Z,-3.20
2022-12-14T22:51:29.427Z,-3.20
2022-12-14T22:53:56.417Z,-3.30
2022-12-14T22:56:27.258Z,-3.40
2022-12-14T22:58:54.194Z,-3.40
2022-12-14T23:01:21.439Z,-3.40
2022-12-14T23:03:48.480Z,-3.40
2022-12-14T23:06:18.066Z,-3.40
2022-12-14T23:09:06.888Z,-3.40
2022-12-14T23:11:53.047Z,-3.30
2022-12-14T23:14:38.992Z,-3.30
2022-12-14T23:17:24.722Z,-3.30
2022-12-14T23:20:10.707Z,-3.30
2022-12-14T23:22:56.160Z,-3.40
2022-12-14T23:25:41.469Z,-3.40
2022-12-14T23:28:27.007Z,-3.40
2022-12-14T23:31:14.748Z,-3.40
2022-12-14T23:34:00.260Z,-3.40
2022-12-14T23:36:45.543Z,-3.40
2022-12-14T23:39:31.497Z,-3.40
2022-12-14T23:42:16.771Z,-3.50
2022-12-14T23:45:02.077Z,-3.50
2022-12-14T23:47:49.409Z,-3.50
2022-12-14T23:50:35.178Z,-3.50
2022-12-14T23:53:24.548Z,-3.50
2022-12-14T23:56:09.872Z,-3.50
2022-12-14T23:58:55.349Z,-3.60
